Time;durP1;ratioP1;P1;durP2;ratioP2;P2;SDS_P1;SDS_P2;PMS_P1;PMS_P2;Temp;Humidity;BMP_temperature;BMP_pressure;BME280_temperature;BME280_humidity;BME280_pressure;Samples;Min_cycle;Max_cycle;Signal;HPM_P1;HPM_P2
2024/01/08 00:02:08;;;;;;;6.50;5.93;;;-2.10;60.10;;;;;;5062021;28;20233;-60
2024/01/08 00:04:34;;;;;;;7.10;6.40;;;-2.00;59.50;;;;;;5065539;28;20202;-61
2024/01/08 00:07:01;;;;;;;6.80;6.10;;;-2.20;58.50;;;;;;5066322;28;20261;-61
2024/01/08 00:09:27;;;;;;;6.47;5.87;;;-2.60;60.30;;;;;;5066603;28;20259;-61
2024/01/08 00:11:54;;;;;;;6.30;5.70;;;-2.20;61.10;;;;;;5066355;28;20216;-61
2024/01/08 00:14:20;;;;;;;6.63;6.10;;;-2.20;58.60;;;;;;5066628;28;20646;-61
2024/01/08 00:16:47;;;;;;;6.10;5.50;;;-2.30;58.10;;;;;;5067479;28;20309;-61
2024/01/08 00:19:13;;;;;;;6.43;5.83;;;-2.20;58.10;;;;;;5066626;28;20237;-61
2024/01/08 00:21:41;;;;;;;5.70;5.20;;;-2.50;59.70;;;;;;5066131;28;20262;-61
2024/01/08 00:24:07;;;;;;;6.23;5.63;;;-2.40;58.70;;;;;;5066386;28;20209;-61
2024/01/08 00:26:34;;;;;;;6.03;5.63;;;-2.20;61.00;;;;;;5064253;28;20278;-61
2024/01/08 00:29:00;;;;;;;6.60;6.03;;;-2.40;58.30;;;;;;5068357;28;20217;-61
2024/01/08 00:31:27;;;;;;;6.30;5.70;;;-2.30;59.20;;;;;;5064634;28;20210;-61
2024/01/08 00:33:53;;;;;;;6.10;5.63;;;-2.40;58.20;;;;;;5062868;28;20680;-61
2024/01/08 00:36:22;;;;;;;6.83;6.23;;;-2.60;59.20;;;;;;5062973;28;20222;-60
2024/01/08 00:38:48;;;;;;;6.20;5.70;;;-2.40;58.20;;;;;;5066008;28;20698;-61
2024/01/08 00:41:15;;;;;;;6.77;5.70;;;-2.50;57.90;;;;;;5062577;28;20236;-61
2024/01/08 00:43:41;;;;;;;5.57;5.17;;;-2.60;59.10;;;;;;5059765;28;20225;-61
2024/01/08 00:46:08;;;;;;;6.07;5.57;;;-2.70;59.30;;;;;;5066165;28;20684;-61
2024/01/08 00:48:34;;;;;;;5.57;5.07;;;-2.60;59.30;;;;;;5063012;28;20226;-61
2024/01/08 00:51:01;;;;;;;6.10;5.60;;;-2.50;59.10;;;;;;5060364;28;20213;-60
2024/01/08 00:53:27;;;;;;;5.80;5.40;;;-2.60;59.10;;;;;;5064505;28;20254;-61
2024/01/08 00:55:54;;;;;;;6.33;5.73;;;-2.50;58.90;;;;;;5062187;28;20283;-61
2024/01/08 00:58:20;;;;;;;6.23;5.63;;;-2.40;59.60;;;;;;5064761;28;20198;-60
2024/01/08 01:00:47;;;;;;;6.00;5.50;;;-3.10;58.10;;;;;;5063431;28;20245;-60
2024/01/08 01:03:13;;;;;;;6.70;6.10;;;-2.90;60.20;;;;;;5066783;28;20228;-61
2024/01/08 01:05:40;;;;;;;6.00;5.50;;;-2.80;60.20;;;;;;5065677;28;20217;-61
2024/01/08 01:08:06;;;;;;;6.97;6.27;;;-2.80;61.20;;;;;;5067098;28;20237;-61
2024/01/08 01:10:33;;;;;;;6.63;5.93;;;-2.80;59.80;;;;;;5064279;28;20216;-61
2024/01/08 01:12:59;;;;;;;7.80;7.00;;;-2.70;58.90;;;;;;5065840;28;20603;-60
2024/01/08 01:15:26;;;;;;;6.93;6.40;;;-2.80;59.20;;;;;;5057491;28;20234;-61
2024/01/08 01:17:52;;;;;;;6.57;5.90;;;-2.80;58.60;;;;;;5067851;28;20213;-60
2024/01/08 01:20:19;;;;;;;6.07;5.57;;;-2.70;58.80;;;;;;5070278;28;20244;-61
2024/01/08 01:22:45;;;;;;;6.37;5.87;;;-2.90;57.80;;;;;;5065510;28;20251;-61
2024/01/08 01:25:12;;;;;;;6.57;6.07;;;-2.90;58.70;;;;;;5065292;28;20260;-61
2024/01/08 01:27:38;;;;;;;7.07;6.37;;;-3.00;59.50;;;;;;5060582;28;20225;-60
2024/01/08 01:30:05;;;;;;;6.83;6.20;;;-2.90;59.50;;;;;;5069963;28;20962;-61
2024/01/08 01:32:32;;;;;;;6.83;6.23;;;-2.80;59.40;;;;;;5062438;28;20233;-61
2024/01/08 01:34:59;;;;;;;6.43;5.93;;;-2.60;58.10;;;;;;5060282;28;20229;-61
2024/01/08 01:37:25;;;;;;;6.50;5.90;;;-2.80;57.70;;;;;;5068435;28;20660;-61
2024/01/08 01:39:52;;;;;;;6.27;5.73;;;-3.10;59.70;;;;;;5066624;28;20297;-61
2024/01/08 01:42:18;;;;;;;6.43;5.90;;;-2.90;59.20;;;;;;5061607;28;20212;-61
2024/01/08 01:44:45;;;;;;;6.83;6.17;;;-2.70;58.20;;;;;;5065111;28;20630;-61
2024/01/08 01:47:11;;;;;;;7.23;6.53;;;-2.90;58.00;;;;;;5066178;28;20239;-61
2024/01/08 01:49:39;;;;;;;6.37;5.77;;;-3.10;59.00;;;;;;5064780;28;20245;-61
2024/01/08 01:52:06;;;;;;;7.27;6.47;;;-2.90;58.50;;;;;;5065133;28;20262;-60
2024/01/08 01:54:32;;;;;;;6.60;6.00;;;-2.80;57.80;;;;;;5064549;28;20213;-61
2024/01/08 01:56:59;;;;;;;7.07;6.47;;;-2.70;59.40;;;;;;5060354;28;20221;-60
2024/01/08 01:59:25;;;;;;;7.03;6.37;;;-2.80;57.50;;;;;;5061341;28;20241;-61
2024/01/08 02:01:51;;;;;;;7.47;6.87;;;-2.90;58.00;;;;;;5057483;28;20640;-60
2024/01/08 02:04:17;;;;;;;6.50;5.90;;;-2.70;58.70;;;;;;5055524;28;20244;-61
2024/01/08 02:06:44;;;;;;;7.00;6.40;;;-2.80;57.30;;;;;;5068943;28;20797;-60
2024/01/08 02:09:10;;;;;;;6.57;6.00;;;-3.00;58.90;;;;;;5065487;28;20259;-61
2024/01/08 02:11:37;;;;;;;6.50;5.90;;;-3.10;59.20;;;;;;5070164;28;20260;-61
2024/01/08 02:14:03;;;;;;;6.40;5.87;;;-3.20;60.10;;;;;;5064577;28;20757;-61
2024/01/08 02:16:30;;;;;;;7.53;6.83;;;-3.00;60.20;;;;;;5063426;28;20306;-60
2024/01/08 02:18:56;;;;;;;7.07;6.37;;;-3.10;58.70;;;;;;5064316;28;20241;-61
2024/01/08 02:21:23;;;;;;;7.03;6.33;;;-2.90;58.40;;;;;;5061966;28;20201;-61
2024/01/08 02:23:49;;;;;;;6.47;5.87;;;-2.90;56.90;;;;;;5065059;28;20244;-61
2024/01/08 02:26:16;;;;;;;6.80;6.20;;;-2.90;58.60;;;;;;5067652;28;20217;-59
2024/01/08 02:28:42;;;;;;;6.53;6.03;;;-3.00;58.20;;;;;;5070790;28;20248;-59
2024/01/08 02:31:09;;;;;;;6.93;6.33;;;-3.10;57.90;;;;;;5066239;28;20658;-61
2024/01/08 02:33:35;;;;;;;6.00;5.47;;;-3.20;59.40;;;;;;5060251;28;20287;-61
2024/01/08 02:36:02;;;;;;;6.27;5.67;;;-3.10;59.50;;;;;;5063634;28;20264;-60
2024/01/08 02:38:28;;;;;;;6.73;6.13;;;-3.00;59.60;;;;;;5061633;28;20214;-61
2024/01/08 02:40:57;;;;;;;7.90;6.73;;;-3.40;60.30;;;;;;5063853;28;20225;-61
2024/01/08 02:43:24;;;;;;;6.63;6.07;;;-3.10;58.90;;;;;;5063467;28;20197;-61
2024/01/08 02:45:50;;;;;;;6.97;6.37;;;-2.90;59.40;;;;;;5064802;28;20249;-58
2024/01/08 02:48:17;;;;;;;6.80;6.30;;;-2.90;58.40;;;;;;5057054;28;20669;-61
2024/01/08 02:50:43;;;;;;;6.63;6.13;;;-3.10;58.60;;;;;;5055445;28;20243;-61
2024/01/08 02:53:10;;;;;;;7.10;6.50;;;-3.10;58.70;;;;;;5058436;28;20245;-59
2024/01/08 02:55:36;;;;;;;7.10;6.50;;;-3.20;58.10;;;;;;5059533;28;20253;-60
2024/01/08 02:58:03;;;;;;;6.57;6.00;;;-3.10;59.20;;;;;;5056412;28;20206;-60
2024/01/08 03:00:29;;;;;;;6.90;6.30;;;-2.90;58.30;;;;;;5061958;28;20264;-60
2024/01/08 03:02:56;;;;;;;6.63;6.03;;;-2.90;58.10;;;;;;5064887;28;20212;-60
2024/01/08 03:05:22;;;;;;;7.07;6.47;;;-3.00;58.40;;;;;;5062513;28;20768;-61
2024/01/08 03:07:49;;;;;;;6.93;6.33;;;-2.80;57.70;;;;;;5059861;28;20233;-61
2024/01/08 03:10:15;;;;;;;7.10;6.50;;;-3.20;59.00;;;;;;5059442;28;20210;-61
2024/01/08 03:12:42;;;;;;;6.27;5.67;;;-3.00;57.80;;;;;;5064595;28;20229;-61
2024/01/08 03:15:08;;;;;;;6.87;6.37;;;-3.20;58.30;;;;;;5069253;28;20229;-61
2024/01/08 03:17:35;;;;;;;7.20;6.60;;;-3.10;58.50;;;;;;5060518;28;20216;-61
2024/01/08 03:20:01;;;;;;;6.37;5.77;;;-3.10;57.90;;;;;;5068951;28;20304;-61
2024/01/08 03:22:28;;;;;;;6.80;6.20;;;-3.50;58.90;;;;;;5061189;28;20201;-61
2024/01/08 03:24:54;;;;;;;7.00;6.37;;;-3.30;58.90;;;;;;5064407;28;20197;-61
2024/01/08 03:27:21;;;;;;;6.90;6.30;;;-3.10;59.00;;;;;;5062651;28;20236;-61
2024/01/08 03:29:47;;;;;;;6.43;5.93;;;-3.00;58.10;;;;;;5059395;28;20736;-61
2024/01/08 03:32:16;;;;;;;6.80;6.20;;;-3.10;58.60;;;;;;5068354;28;20243;-61
2024/01/08 03:34:43;;;;;;;6.57;6.03;;;-3.20;59.20;;;;;;5062297;28;20197;-60
2024/01/08 03:37:09;;;;;;;7.30;6.33;;;-3.10;59.30;;;;;;5062080;28;20212;-61
2024/01/08 03:39:36;;;;;;;7.00;6.40;;;-3.20;59.50;;;;;;5056084;28;20230;-61
2024/01/08 03:42:02;;;;;;;6.43;5.87;;;-3.10;58.90;;;;;;5063221;28;20239;-60
2024/01/08 03:44:29;;;;;;;6.97;6.33;;;-3.00;58.00;;;;;;5061293;28;20204;-61
2024/01/08 03:46:56;;;;;;;6.90;6.30;;;-2.90;58.60;;;;;;5061583;28;20218;-61
2024/01/08 03:49:22;;;;;;;6.53;5.97;;;-3.10;58.40;;;;;;5060966;28;20213;-61
2024/01/08 03:51:49;;;;;;;7.27;6.63;;;-3.10;58.40;;;;;;5056592;28;20851;-61
2024/01/08 03:54:15;;;;;;;7.20;6.60;;;-3.00;58.40;;;;;;5069791;28;20232;-59
2024/01/08 03:56:42;;;;;;;7.73;6.87;;;-3.00;57.60;;;;;;5055544;28;20221;-61
2024/01/08 03:59:08;;;;;;;6.70;6.10;;;-3.00;58.00;;;;;;5062917;28;20625;-61
2024/01/08 04:01:35;;;;;;;7.03;6.43;;;-3.40;58.30;;;;;;5060483;28;20209;-60
2024/01/08 04:04:02;;;;;;;6.80;6.10;;;-3.20;58.40;;;;;;5058121;28;20282;-61
2024/01/08 04:06:29;;;;;;;7.30;6.70;;;-3.10;57.10;;;;;;5060420;28;20228;-61
2024/01/08 04:08:55;;;;;;;6.97;6.37;;;-2.90;57.80;;;;;;5056317;28;20225;-61
2024/01/08 04:11:21;;;;;;;7.63;6.93;;;-3.10;57.40;;;;;;5067475;28;20627;-61
2024/01/08 04:13:48;;;;;;;7.43;6.77;;;-3.10;57.40;;;;;;5059038;28;20233;-61
2024/01/08 04:16:14;;;;;;;6.67;6.07;;;-3.40;58.80;;;;;;5067993;28;20257;-61
2024/01/08 04:18:41;;;;;;;7.27;6.50;;;-3.30;59.10;;;;;;5060958;28;20278;-61
2024/01/08 04:21:07;;;;;;;6.93;6.30;;;-3.30;58.60;;;;;;5065107;28;20201;-61
2024/01/08 04:23:34;;;;;;;6.87;6.17;;;-3.20;59.10;;;;;;5064277;28;20200;-60
2024/01/08 04:26:00;;;;;;;7.17;6.57;;;-2.90;58.20;;;;;;5073628;28;20275;-61
2024/01/08 04:28:27;;;;;;;6.80;6.20;;;-3.00;58.10;;;;;;5071678;28;20205;-60
2024/01/08 04:30:54;;;;;;;7.80;7.00;;;-3.10;59.60;;;;;;5062929;28;20210;-61
2024/01/08 04:33:20;;;;;;;7.47;6.80;;;-3.20;59.60;;;;;;5062530;28;20214;-60
2024/01/08 04:35:47;;;;;;;7.70;6.90;;;-3.00;58.50;;;;;;5062743;28;20704;-61
2024/01/08 04:38:13;;;;;;;7.50;6.80;;;-3.10;58.40;;;;;;5062918;28;20237;-61
2024/01/08 04:40:40;;;;;;;6.37;5.77;;;-3.00;59.80;;;;;;5064231;28;20278;-61
2024/01/08 04:43:06;;;;;;;6.93;6.33;;;-3.00;58.30;;;;;;5062951;28;20634;-61
2024/01/08 04:45:32;;;;;;;6.77;6.17;;;-3.10;59.10;;;;;;5069574;28;20213;-61
2024/01/08 04:47:59;;;;;;;7.30;6.60;;;-3.10;59.80;;;;;;5072130;28;20227;-60
2024/01/08 04:50:25;;;;;;;7.07;6.50;;;-3.00;59.20;;;;;;5057535;28;20213;-60
2024/01/08 04:52:52;;;;;;;6.80;6.20;;;-2.80;59.20;;;;;;5065780;28;20655;-60
2024/01/08 04:55:19;;;;;;;7.60;6.90;;;-3.10;58.30;;;;;;5064178;28;20313;-61
2024/01/08 04:57:45;;;;;;;7.60;6.90;;;-3.10;59.50;;;;;;5065820;28;20209;-61
2024/01/08 05:00:12;;;;;;;7.10;6.50;;;-3.30;59.30;;;;;;5065688;28;20262;-61
2024/01/08 05:02:39;;;;;;;7.10;6.50;;;-3.10;60.00;;;;;;5069233;28;20600;-61
2024/01/08 05:05:05;;;;;;;7.73;7.13;;;-3.00;60.10;;;;;;5063472;28;20283;-61
2024/01/08 05:07:32;;;;;;;7.33;6.73;;;-2.90;58.40;;;;;;5065860;28;20564;-61
2024/01/08 05:09:58;;;;;;;7.60;6.90;;;-2.90;59.40;;;;;;5065695;28;20259;-61
2024/01/08 05:12:25;;;;;;;7.57;6.90;;;-3.00;59.40;;;;;;5062165;28;20246;-61
2024/01/08 05:14:51;;;;;;;6.87;6.27;;;-3.00;58.50;;;;;;5073001;28;20258;-61
2024/01/08 05:17:18;;;;;;;6.93;6.27;;;-3.40;59.30;;;;;;5065574;28;20252;-61
2024/01/08 05:19:44;;;;;;;7.47;6.77;;;-3.00;59.70;;;;;;5068525;28;20582;-61
2024/01/08 05:22:11;;;;;;;7.60;6.90;;;-2.90;59.30;;;;;;5064910;28;20235;-61
2024/01/08 05:24:37;;;;;;;8.23;7.43;;;-2.80;59.70;;;;;;5063542;28;20271;-61
2024/01/08 05:27:04;;;;;;;6.90;6.20;;;-2.80;60.00;;;;;;5062440;28;20205;-61
2024/01/08 05:29:30;;;;;;;7.43;6.60;;;-3.00;57.70;;;;;;5063880;28;20252;-62
2024/01/08 05:31:57;;;;;;;6.70;6.20;;;-2.80;58.30;;;;;;5065124;28;20578;-60
2024/01/08 05:34:23;;;;;;;7.30;6.60;;;-2.80;58.40;;;;;;5063573;28;20229;-61
2024/01/08 05:36:50;;;;;;;7.33;6.60;;;-3.00;58.90;;;;;;5063779;28;20684;-60
2024/01/08 05:39:17;;;;;;;7.30;6.60;;;-3.20;59.00;;;;;;5055987;28;20267;-60
2024/01/08 05:41:43;;;;;;;7.70;7.10;;;-3.30;58.40;;;;;;5056636;28;20208;-61
2024/01/08 05:44:10;;;;;;;7.07;6.47;;;-3.30;59.30;;;;;;5064826;28;20740;-60
2024/01/08 05:46:36;;;;;;;7.47;6.87;;;-3.00;58.40;;;;;;5058076;28;20260;-60
2024/01/08 05:49:03;;;;;;;7.47;6.77;;;-3.30;57.70;;;;;;5070052;28;20232;-60
2024/01/08 05:51:29;;;;;;;6.90;6.30;;;-3.10;58.80;;;;;;5062288;28;20214;-61
2024/01/08 05:53:56;;;;;;;7.40;6.77;;;-3.00;58.40;;;;;;5059493;28;20628;-61
2024/01/08 05:56:22;;;;;;;7.40;6.80;;;-3.20;58.50;;;;;;5060583;28;20282;-61
2024/01/08 05:58:49;;;;;;;7.70;7.03;;;-3.30;58.50;;;;;;5064625;28;20676;-62
2024/01/08 06:01:17;;;;;;;8.13;7.33;;;-3.30;58.90;;;;;;5064609;28;20205;-60
2024/01/08 06:03:44;;;;;;;7.80;7.10;;;-3.30;59.70;;;;;;5064663;28;20205;-61
2024/01/08 06:06:10;;;;;;;7.30;6.70;;;-3.10;59.30;;;;;;5066452;28;20221;-61
2024/01/08 06:08:37;;;;;;;8.63;7.77;;;-3.00;59.40;;;;;;5066406;28;20208;-60
2024/01/08 06:11:03;;;;;;;8.00;7.20;;;-3.20;59.30;;;;;;5066247;28;20209;-61
2024/01/08 06:13:30;;;;;;;7.73;6.93;;;-3.10;60.20;;;;;;5062462;28;20244;-61
2024/01/08 06:15:56;;;;;;;7.77;7.07;;;-2.90;60.00;;;;;;5061877;28;20225;-61
2024/01/08 06:18:24;;;;;;;7.20;6.50;;;-3.00;59.70;;;;;;5060818;28;20205;-61
2024/01/08 06:20:50;;;;;;;8.57;7.27;;;-3.00;59.80;;;;;;5062099;28;20201;-61
2024/01/08 06:23:17;;;;;;;7.93;7.20;;;-2.90;59.20;;;;;;5064300;28;20214;-61
2024/01/08 06:25:43;;;;;;;7.90;7.20;;;-2.90;59.30;;;;;;5057590;28;20253;-61
2024/01/08 06:28:10;;;;;;;7.70;7.00;;;-3.10;58.80;;;;;;5069033;28;20578;-61
2024/01/08 06:30:36;;;;;;;9.33;7.37;;;-3.00;59.70;;;;;;5054559;28;20237;-61
2024/01/08 06:33:03;;;;;;;7.57;6.73;;;-3.10;58.60;;;;;;5059579;28;20209;-61
2024/01/08 06:35:29;;;;;;;7.30;6.70;;;-3.10;59.40;;;;;;5062425;28;20229;-61
2024/01/08 06:37:56;;;;;;;7.47;6.77;;;-3.10;59.10;;;;;;5057720;28;20660;-61
2024/01/08 06:40:22;;;;;;;8.30;7.40;;;-2.90;59.60;;;;;;5061386;28;20213;-61
2024/01/08 06:42:49;;;;;;;7.30;6.67;;;-3.20;59.80;;;;;;5063744;28;20664;-61
2024/01/08 06:45:15;;;;;;;8.00;7.20;;;-3.00;60.20;;;;;;5064122;28;20253;-61
2024/01/08 06:47:42;;;;;;;7.73;7.03;;;-3.10;59.20;;;;;;5062204;28;20598;-61
2024/01/08 06:50:08;;;;;;;7.67;6.97;;;-3.10;59.40;;;;;;5059053;28;20237;-61
2024/01/08 06:52:35;;;;;;;7.97;7.20;;;-3.10;60.40;;;;;;5058691;28;20244;-61
2024/01/08 06:55:01;;;;;;;8.37;7.57;;;-3.10;59.50;;;;;;5062245;28;20298;-61
2024/01/08 06:57:28;;;;;;;8.23;7.53;;;-3.00;60.20;;;;;;5063730;28;20214;-61
2024/01/08 06:59:54;;;;;;;7.43;6.73;;;-3.10;59.40;;;;;;5061046;28;20229;-61
2024/01/08 07:02:21;;;;;;;8.03;6.77;;;-2.90;58.60;;;;;;5059432;28;20200;-61
2024/01/08 07:04:47;;;;;;;7.60;7.00;;;-3.00;59.00;;;;;;5065513;28;20229;-61
2024/01/08 07:07:14;;;;;;;8.70;7.90;;;-3.10;59.70;;;;;;5065070;28;20228;-61
2024/01/08 07:09:40;;;;;;;8.07;7.30;;;-2.90;59.20;;;;;;5059589;28;20223;-61
2024/01/08 07:12:08;;;;;;;7.43;6.73;;;-3.00;59.50;;;;;;5063145;28;20226;-60
2024/01/08 07:14:34;;;;;;;10.27;7.43;;;-3.10;59.90;;;;;;5061150;28;20675;-61
2024/01/08 07:17:01;;;;;;;8.27;7.50;;;-3.20;59.70;;;;;;5055850;28;20233;-61
2024/01/08 07:19:27;;;;;;;8.43;7.63;;;-3.00;59.40;;;;;;5064743;28;20225;-61
2024/01/08 07:21:54;;;;;;;8.43;7.63;;;-3.00;59.80;;;;;;5061478;28;20298;-61
2024/01/08 07:24:20;;;;;;;9.37;7.93;;;-3.20;60.20;;;;;;5067593;28;20205;-61
2024/01/08 07:26:47;;;;;;;8.53;7.70;;;-3.20;60.30;;;;;;5061703;28;20565;-61
2024/01/08 07:29:13;;;;;;;9.60;7.90;;;-3.10;59.50;;;;;;5055109;28;20256;-61
2024/01/08 07:31:40;;;;;;;7.90;7.10;;;-3.10;60.20;;;;;;5056983;28;20736;-61
2024/01/08 07:34:06;;;;;;;9.67;8.67;;;-3.10;60.20;;;;;;5063649;28;20232;-61
2024/01/08 07:36:33;;;;;;;11.10;7.97;;;-3.20;60.80;;;;;;5052730;28;20319;-61
2024/01/08 07:38:59;;;;;;;9.27;8.37;;;-2.90;61.00;;;;;;5056957;28;20218;-61
2024/01/08 07:41:27;;;;;;;10.97;7.90;;;-3.00;61.00;;;;;;5057834;28;20233;-61
2024/01/08 07:43:53;;;;;;;8.77;7.40;;;-3.00;60.70;;;;;;5059032;28;20611;-61
2024/01/08 07:46:20;;;;;;;9.80;8.87;;;-2.90;59.90;;;;;;5052975;28;20260;-61
2024/01/08 07:48:46;;;;;;;8.70;7.73;;;-2.90;60.50;;;;;;5060953;28;20710;-61
2024/01/08 07:51:13;;;;;;;9.37;8.57;;;-2.70;59.80;;;;;;5063940;28;20237;-61
2024/01/08 07:53:40;;;;;;;8.90;8.10;;;-2.90;60.70;;;;;;5063846;28;20205;-61
2024/01/08 07:56:06;;;;;;;8.50;7.73;;;-3.00;60.80;;;;;;5061954;28;20221;-60
2024/01/08 07:58:33;;;;;;;9.63;8.63;;;-2.80;60.30;;;;;;5064303;28;20228;-60
2024/01/08 08:00:59;;;;;;;9.27;8.37;;;-2.80;60.30;;;;;;5065329;28;20666;-60
2024/01/08 08:03:27;;;;;;;9.03;8.13;;;-2.80;60.90;;;;;;5058612;28;20204;-60
2024/01/08 08:05:53;;;;;;;8.83;8.03;;;-2.80;59.70;;;;;;5060585;28;20221;-60
2024/01/08 08:08:20;;;;;;;9.17;8.27;;;-2.80;61.20;;;;;;5061279;28;20202;-60
2024/01/08 08:10:46;;;;;;;9.33;8.43;;;-2.70;60.20;;;;;;5061443;28;20696;-60
2024/01/08 08:13:13;;;;;;;8.70;7.80;;;-2.90;59.20;;;;;;5071966;28;20552;-60
2024/01/08 08:15:39;;;;;;;9.40;8.47;;;-2.90;60.30;;;;;;5055841;28;20306;-59
2024/01/08 08:18:06;;;;;;;8.73;7.93;;;-2.70;59.80;;;;;;5063293;28;20756;-59
2024/01/08 08:20:32;;;;;;;9.33;8.43;;;-2.90;59.20;;;;;;5058165;28;20214;-58
2024/01/08 08:22:59;;;;;;;9.20;8.30;;;-2.80;61.20;;;;;;5062695;28;20205;-60
2024/01/08 08:25:26;;;;;;;8.93;8.07;;;-2.60;60.60;;;;;;5057935;28;20300;-59
2024/01/08 08:27:52;;;;;;;9.53;8.73;;;-2.70;59.40;;;;;;5062537;28;20680;-60
2024/01/08 08:30:22;;;;;;;9.30;7.90;;;-2.80;60.60;;;;;;5063909;28;20209;-58
2024/01/08 08:32:50;;;;;;;9.17;8.27;;;-2.80;60.60;;;;;;5062933;28;20232;-60
2024/01/08 08:35:16;;;;;;;9.90;8.90;;;-2.60;60.10;;;;;;5061182;28;20229;-60
2024/01/08 08:37:43;;;;;;;10.17;9.17;;;-2.70;61.50;;;;;;5059809;28;20299;-58
2024/01/08 08:40:12;;;;;;;9.90;8.90;;;-2.80;60.70;;;;;;5064590;28;20236;-60
2024/01/08 08:42:39;;;;;;;12.30;11.00;;;-2.70;60.70;;;;;;5062776;28;20212;-58
2024/01/08 08:45:06;;;;;;;9.63;8.73;;;-2.60;61.40;;;;;;5062661;28;20302;-59
2024/01/08 08:47:33;;;;;;;9.80;8.87;;;-2.60;62.10;;;;;;5062423;28;20197;-55
2024/01/08 08:49:59;;;;;;;10.77;9.50;;;-2.80;60.50;;;;;;5060881;28;20233;-60
2024/01/08 08:52:26;;;;;;;11.40;9.87;;;-2.80;60.80;;;;;;5054961;28;20239;-59
2024/01/08 08:54:53;;;;;;;11.37;10.27;;;-2.60;61.30;;;;;;5054990;28;20237;-58
2024/01/08 08:57:19;;;;;;;10.13;9.13;;;-2.50;60.30;;;;;;5060525;28;20223;-58
2024/01/08 08:59:46;;;;;;;10.57;8.43;;;-2.50;59.90;;;;;;5057899;28;20628;-59
2024/01/08 09:02:12;;;;;;;8.80;7.90;;;-2.30;59.90;;;;;;5056442;28;20241;-58
2024/01/08 09:04:39;;;;;;;9.07;8.17;;;-2.30;59.80;;;;;;5067335;28;20718;-59
2024/01/08 09:07:06;;;;;;;9.00;8.13;;;-2.30;59.90;;;;;;5053955;28;20236;-60
2024/01/08 09:09:32;;;;;;;8.73;7.93;;;-2.40;59.60;;;;;;5054048;28;20260;-59
2024/01/08 09:11:59;;;;;;;8.83;7.93;;;-2.60;59.60;;;;;;5060204;28;20237;-59
2024/01/08 09:14:25;;;;;;;9.37;8.47;;;-2.60;61.00;;;;;;5066092;28;20209;-60
2024/01/08 09:16:52;;;;;;;9.00;8.20;;;-2.60;60.20;;;;;;5054131;28;20265;-60
2024/01/08 09:19:18;;;;;;;9.83;8.97;;;-2.50;60.00;;;;;;5057338;28;20697;-60
2024/01/08 09:21:45;;;;;;;11.13;8.57;;;-2.30;59.50;;;;;;5068169;28;20696;-57
2024/01/08 09:24:11;;;;;;;9.33;8.47;;;-2.50;60.20;;;;;;5053950;28;20206;-57
2024/01/08 09:26:39;;;;;;;9.47;8.50;;;-2.40;60.40;;;;;;5058930;28;20298;-55
2024/01/08 09:29:05;;;;;;;9.47;8.47;;;-2.40;59.90;;;;;;5059059;28;20206;-55
2024/01/08 09:31:32;;;;;;;8.93;8.07;;;-2.40;60.50;;;;;;5060192;28;20213;-55
2024/01/08 09:33:58;;;;;;;10.23;9.13;;;-2.40;59.90;;;;;;5062449;28;20202;-59
2024/01/08 09:36:25;;;;;;;10.20;9.20;;;-2.20;59.60;;;;;;5064159;28;20961;-59
2024/01/08 09:38:51;;;;;;;10.40;9.23;;;-2.30;58.60;;;;;;5057377;28;20233;-55
2024/01/08 09:41:18;;;;;;;11.70;8.90;;;-2.30;59.20;;;;;;5053721;28;20288;-57
2024/01/08 09:43:44;;;;;;;9.57;8.53;;;-2.20;59.20;;;;;;5060301;28;20241;-58
2024/01/08 09:46:11;;;;;;;10.03;9.03;;;-2.30;59.20;;;;;;5052167;28;20230;-56
2024/01/08 09:48:37;;;;;;;10.73;9.63;;;-2.30;59.60;;;;;;5060808;28;20210;-58
2024/01/08 09:51:04;;;;;;;11.50;9.60;;;-2.30;59.60;;;;;;5063346;28;20201;-54
2024/01/08 09:53:30;;;;;;;10.20;9.20;;;-2.30;59.30;;;;;;5054411;28;20295;-59
2024/01/08 09:55:57;;;;;;;10.97;9.50;;;-2.10;59.50;;;;;;5057908;28;20298;-59
2024/01/08 09:58:23;;;;;;;10.73;9.47;;;-2.50;60.30;;;;;;5054530;28;20261;-58
2024/01/08 10:00:50;;;;;;;13.33;10.97;;;-2.40;59.40;;;;;;5057380;28;20559;-57
2024/01/08 10:03:17;;;;;;;12.03;8.37;;;-2.20;60.10;;;;;;5056672;28;20287;-58
2024/01/08 10:05:43;;;;;;;12.97;10.30;;;-2.20;59.30;;;;;;5061211;28;20317;-59
2024/01/08 10:08:10;;;;;;;10.47;9.47;;;-2.20;59.20;;;;;;5060510;28;20797;-56
2024/01/08 10:10:36;;;;;;;11.43;9.23;;;-2.20;59.50;;;;;;5065641;28;20263;-58
2024/01/08 10:13:03;;;;;;;9.33;8.43;;;-2.10;58.50;;;;;;5072003;28;20247;-57
2024/01/08 10:15:29;;;;;;;9.90;8.90;;;-1.90;59.20;;;;;;5062653;28;20256;-59
2024/01/08 10:18:00;;;;;;;9.63;8.63;;;-2.00;59.10;;;;;;5052159;28;20315;-57
2024/01/08 10:20:26;;;;;;;10.57;9.23;;;-1.90;58.40;;;;;;5062124;28;20216;-58
2024/01/08 10:22:53;;;;;;;10.00;9.10;;;-2.20;59.80;;;;;;5061057;28;20260;-58
2024/01/08 10:25:19;;;;;;;10.87;9.73;;;-2.10;58.60;;;;;;5060341;28;20222;-58
2024/01/08 10:27:46;;;;;;;10.30;9.30;;;-2.30;59.20;;;;;;5058624;28;20198;-59
2024/01/08 10:30:12;;;;;;;9.47;8.53;;;-2.00;59.10;;;;;;5056071;28;20213;-58
2024/01/08 10:32:39;;;;;;;10.07;8.83;;;-1.90;59.00;;;;;;5046777;28;20300;-57
2024/01/08 10:35:05;;;;;;;11.00;9.10;;;-1.80;59.00;;;;;;5051535;28;20249;-58
2024/01/08 10:37:32;;;;;;;10.37;9.37;;;-1.90;58.50;;;;;;5052073;28;20351;-57
2024/01/08 10:39:58;;;;;;;10.53;9.00;;;-2.00;58.90;;;;;;5054088;28;20206;-59
2024/01/08 10:42:25;;;;;;;11.33;9.13;;;-2.20;59.70;;;;;;5054039;28;20300;-59
2024/01/08 10:44:51;;;;;;;11.10;9.93;;;-2.00;59.40;;;;;;5046294;28;20355;-57
2024/01/08 10:47:18;;;;;;;10.90;9.80;;;-2.20;59.60;;;;;;5045453;28;20265;-59
2024/01/08 10:49:44;;;;;;;11.00;9.57;;;-2.20;59.50;;;;;;5044931;28;20343;-59
2024/01/08 10:52:11;;;;;;;9.43;8.47;;;-2.20;59.30;;;;;;5046850;28;20248;-59
2024/01/08 10:54:38;;;;;;;10.47;9.43;;;-2.10;59.50;;;;;;5048441;28;20213;-58
2024/01/08 10:57:05;;;;;;;10.03;8.53;;;-2.10;59.70;;;;;;5048056;28;20316;-58
2024/01/08 10:59:32;;;;;;;10.60;9.00;;;-2.00;59.10;;;;;;5050099;28;20300;-57
2024/01/08 11:01:58;;;;;;;9.67;8.67;;;-1.90;59.30;;;;;;5046133;28;20681;-58
2024/01/08 11:04:25;;;;;;;9.63;8.33;;;-1.80;58.70;;;;;;5051002;28;20312;-57
2024/01/08 11:06:51;;;;;;;10.83;9.20;;;-2.10;59.70;;;;;;5045595;28;20229;-58
2024/01/08 11:09:18;;;;;;;9.53;8.00;;;-2.00;59.60;;;;;;5049583;28;21216;-59
2024/01/08 11:11:44;;;;;;;10.10;9.10;;;-1.90;59.00;;;;;;5048793;28;20592;-59
2024/01/08 11:14:11;;;;;;;11.43;9.10;;;-1.80;58.10;;;;;;5045994;28;20205;-57
2024/01/08 11:16:37;;;;;;;9.67;8.70;;;-1.80;58.60;;;;;;5041859;28;20649;-59
2024/01/08 11:19:04;;;;;;;10.50;8.37;;;-1.80;58.60;;;;;;5050780;28;20225;-59
2024/01/08 11:21:30;;;;;;;10.20;8.70;;;-1.80;58.90;;;;;;5046558;28;20225;-58
2024/01/08 11:23:57;;;;;;;10.30;9.03;;;-1.90;57.30;;;;;;5048474;28;20229;-59
2024/01/08 11:26:25;;;;;;;10.03;9.03;;;-1.80;57.70;;;;;;5044288;28;20227;-58
2024/01/08 11:28:51;;;;;;;9.83;8.83;;;-1.70;56.70;;;;;;5051901;28;20205;-57
2024/01/08 11:31:18;;;;;;;11.23;10.13;;;-1.90;57.90;;;;;;5050860;28;20590;-57
2024/01/08 11:33:45;;;;;;;9.43;8.47;;;-1.90;57.30;;;;;;5047928;28;20292;-57
2024/01/08 11:36:11;;;;;;;10.03;9.03;;;-2.00;56.80;;;;;;5052089;28;20228;-56
2024/01/08 11:38:38;;;;;;;9.83;8.83;;;-1.80;57.70;;;;;;5050237;28;20221;-59
2024/01/08 11:41:04;;;;;;;9.83;8.83;;;-1.70;58.10;;;;;;5051801;28;20300;-57
2024/01/08 11:43:31;;;;;;;9.97;8.97;;;-1.80;58.40;;;;;;5051771;28;21407;-58
2024/01/08 11:45:58;;;;;;;9.40;8.30;;;-1.50;57.00;;;;;;5050818;28;20327;-60
2024/01/08 11:48:25;;;;;;;9.53;8.60;;;-1.90;57.40;;;;;;5054347;28;20602;-58
2024/01/08 11:50:51;;;;;;;9.57;8.63;;;-1.70;57.90;;;;;;5051908;28;20201;-58
2024/01/08 11:53:18;;;;;;;10.20;9.20;;;-1.60;57.90;;;;;;5048607;28;20309;-59
2024/01/08 11:55:44;;;;;;;9.67;8.80;;;-1.70;57.80;;;;;;5048231;28;20228;-58
2024/01/08 11:58:11;;;;;;;10.63;9.53;;;-1.60;57.60;;;;;;5052017;28;20225;-58
2024/01/08 12:00:37;;;;;;;10.70;9.57;;;-1.60;57.90;;;;;;5048798;28;20279;-55
2024/01/08 12:03:04;;;;;;;9.73;8.83;;;-1.50;57.90;;;;;;5055354;28;20206;-58
2024/01/08 12:05:30;;;;;;;10.60;9.50;;;-1.50;57.00;;;;;;5051475;28;20226;-58
2024/01/08 12:07:57;;;;;;;9.17;8.40;;;-1.80;57.70;;;;;;5049237;28;20286;-56
2024/01/08 12:10:23;;;;;;;10.40;9.30;;;-1.50;57.10;;;;;;5053237;28;20217;-58
2024/01/08 12:12:50;;;;;;;10.10;9.20;;;-1.60;57.90;;;;;;5050835;28;20204;-55
2024/01/08 12:15:17;;;;;;;9.83;8.93;;;-1.50;57.80;;;;;;5054647;28;20327;-57
2024/01/08 12:17:44;;;;;;;9.63;8.70;;;-1.50;58.30;;;;;;5053220;28;20565;-59
2024/01/08 12:20:11;;;;;;;10.63;9.37;;;-1.40;57.80;;;;;;5059873;28;20202;-56
2024/01/08 12:22:37;;;;;;;10.23;9.23;;;-1.50;57.10;;;;;;5059905;28;20205;-59
2024/01/08 12:25:04;;;;;;;11.13;9.30;;;-1.50;57.70;;;;;;5055314;28;20282;-59
2024/01/08 12:27:31;;;;;;;10.60;9.60;;;-1.60;57.10;;;;;;5061731;28;20220;-58
2024/01/08 12:29:58;;;;;;;9.90;9.00;;;-1.70;58.80;;;;;;5056990;28;20225;-56
2024/01/08 12:32:24;;;;;;;9.93;8.93;;;-1.60;57.90;;;;;;5060115;28;20208;-57
2024/01/08 12:34:51;;;;;;;9.93;9.07;;;-1.70;56.70;;;;;;5056335;28;20264;-56
2024/01/08 12:37:17;;;;;;;10.50;9.43;;;-1.60;56.90;;;;;;5051365;28;20695;-56
2024/01/08 12:39:44;;;;;;;10.53;9.53;;;-1.50;56.40;;;;;;5060158;28;20582;-59
2024/01/08 12:42:10;;;;;;;13.17;9.37;;;-1.40;56.40;;;;;;5065806;28;20223;-59